Terminal Aerodrome Forecast
Issued by NWS

Home | Current Version | Previous Version | Text Only | Print | Product List | Glossary On
Versions: 1 2 3 4 5 6 7 8 9 10 11 12 13 14 15 16 17 18 19 20
295
FTUS43 KDLH 142338
TAFBRD
TAF
KBRD 142338Z 1500/1524 15006KT 3SM -SN OVC035
      TEMPO 1500/1503 1SM -SN BR OVC025
     FM150400 33010KT P6SM BKN025
     FM151500 34013G20KT P6SM VCSH BKN015
     FM152200 34011G18KT P6SM SCT015 BKN035=

USA.gov is the U.S. government's official web portal to all federal, state and local government web resources and services.